Time;durP1;ratioP1;P1;durP2;ratioP2;P2;SDS_P1;SDS_P2;PMS_P1;PMS_P2;Temp;Humidity;BMP_temperature;BMP_pressure;BME280_temperature;BME280_humidity;BME280_pressure;Samples;Min_cycle;Max_cycle;Signal;HPM_P1;HPM_P2
2022/05/04 00:02:25;;;;;;;10.13;4.47;;;8.20;99.90;;;;;;4877221;29;20053;-79
2022/05/04 00:04:51;;;;;;;11.63;4.00;;;8.20;99.90;;;;;;4860690;29;20046;-79
2022/05/04 00:07:17;;;;;;;9.93;3.30;;;8.20;99.90;;;;;;4877397;29;20072;-80
2022/05/04 00:09:42;;;;;;;14.07;3.67;;;8.20;99.90;;;;;;4863522;29;20083;-79
2022/05/04 00:12:08;;;;;;;15.77;4.17;;;8.20;99.90;;;;;;4877087;29;20387;-80
2022/05/04 00:14:34;;;;;;;9.27;3.10;;;8.20;99.90;;;;;;4846163;29;20029;-79
2022/05/04 00:17:00;;;;;;;13.17;3.90;;;8.20;99.90;;;;;;4890031;29;20835;-79
2022/05/04 00:19:25;;;;;;;6.97;3.50;;;8.20;99.90;;;;;;4861813;29;20041;-79
2022/05/04 00:21:51;;;;;;;7.67;3.20;;;8.20;99.90;;;;;;4877416;29;20053;-79
2022/05/04 00:24:19;;;;;;;10.00;3.17;;;8.20;99.90;;;;;;4868510;29;20564;-79
2022/05/04 00:26:46;;;;;;;10.73;3.30;;;8.20;99.90;;;;;;4861466;29;20048;-79
2022/05/04 00:29:12;;;;;;;7.57;3.30;;;8.20;99.90;;;;;;4829031;29;20434;-80
2022/05/04 00:31:38;;;;;;;6.77;3.13;;;8.20;99.90;;;;;;4876872;29;20057;-79
2022/05/04 00:34:04;;;;;;;7.07;3.37;;;8.20;99.90;;;;;;4858348;29;20077;-79
2022/05/04 00:36:31;;;;;;;11.90;3.77;;;8.10;99.90;;;;;;4888870;29;20070;-79
2022/05/04 00:38:57;;;;;;;10.40;3.20;;;8.10;99.90;;;;;;4868333;29;20124;-79
2022/05/04 00:41:23;;;;;;;10.77;3.53;;;8.10;99.90;;;;;;4876632;29;20543;-79
2022/05/04 00:43:53;;;;;;;11.00;3.30;;;8.10;99.90;;;;;;4860483;29;20057;-79
2022/05/04 00:46:20;;;;;;;9.17;3.20;;;8.10;99.90;;;;;;4873995;29;20045;-80
2022/05/04 00:48:46;;;;;;;8.50;3.53;;;8.10;99.90;;;;;;4906784;29;20077;-79
2022/05/04 00:51:12;;;;;;;11.87;3.60;;;8.10;99.90;;;;;;4896471;29;20064;-79
2022/05/04 00:53:40;;;;;;;10.27;3.50;;;8.10;99.90;;;;;;4891451;29;20052;-79
2022/05/04 00:56:08;;;;;;;10.93;3.73;;;8.00;99.90;;;;;;4877370;29;20101;-79
2022/05/04 01:01:24;;;;;;;7.03;3.27;;;8.10;99.90;;;;;;4874771;29;20063;-80
2022/05/04 01:03:51;;;;;;;12.93;4.40;;;8.10;99.90;;;;;;4863619;29;20055;-79
2022/05/04 01:06:16;;;;;;;12.40;3.53;;;8.10;99.90;;;;;;4844311;29;20048;-79
2022/05/04 01:08:42;;;;;;;10.33;4.07;;;8.10;99.90;;;;;;4859926;29;20052;-79
2022/05/04 01:11:08;;;;;;;10.83;3.90;;;8.00;99.90;;;;;;4851361;29;20125;-79
2022/05/04 01:13:34;;;;;;;10.87;3.60;;;8.00;99.90;;;;;;4884504;29;20053;-80
2022/05/04 01:16:00;;;;;;;7.70;3.57;;;8.00;99.90;;;;;;4875954;29;20450;-79
2022/05/04 01:18:25;;;;;;;6.40;3.33;;;8.00;99.90;;;;;;4830188;29;20090;-79
2022/05/04 01:20:51;;;;;;;8.53;3.43;;;8.00;99.90;;;;;;4875331;29;20051;-79
2022/05/04 01:23:17;;;;;;;9.57;3.53;;;8.00;99.90;;;;;;4854803;29;20040;-80
2022/05/04 01:25:44;;;;;;;7.87;3.67;;;7.90;99.90;;;;;;4874120;29;20053;-79
2022/05/04 01:28:10;;;;;;;9.10;3.50;;;7.90;99.90;;;;;;4861011;29;20049;-79
2022/05/04 01:30:36;;;;;;;8.70;3.20;;;7.90;99.90;;;;;;4861243;29;20143;-79
2022/05/04 01:33:02;;;;;;;9.23;3.77;;;7.90;99.90;;;;;;4862163;29;20042;-77
2022/05/04 01:35:28;;;;;;;9.80;3.63;;;7.90;99.90;;;;;;4863022;29;20096;-79
2022/05/04 01:37:54;;;;;;;14.53;4.13;;;7.90;99.90;;;;;;4864303;29;20045;-80
2022/05/04 01:40:20;;;;;;;12.87;3.43;;;7.80;99.90;;;;;;4845933;29;20056;-79
2022/05/04 01:42:46;;;;;;;10.50;3.63;;;7.90;99.90;;;;;;4864430;29;20041;-79
2022/05/04 01:45:11;;;;;;;8.83;3.90;;;7.90;99.90;;;;;;4879256;29;20071;-79
2022/05/04 01:47:38;;;;;;;7.83;3.83;;;7.90;99.90;;;;;;4860554;29;20049;-79
2022/05/04 01:50:04;;;;;;;6.27;3.33;;;7.90;99.90;;;;;;4863729;29;20180;-80
2022/05/04 01:52:30;;;;;;;9.90;4.10;;;7.80;99.90;;;;;;4891915;29;20041;-79
2022/05/04 01:54:59;;;;;;;7.63;3.47;;;7.90;99.90;;;;;;4860691;29;20409;-79
2022/05/04 01:57:25;;;;;;;7.93;3.53;;;7.80;99.90;;;;;;4860404;29;20050;-79
2022/05/04 01:59:50;;;;;;;8.60;3.67;;;7.80;99.90;;;;;;4860094;29;20056;-78
2022/05/04 02:02:16;;;;;;;7.73;3.50;;;7.80;99.90;;;;;;4845045;29;20049;-79
2022/05/04 02:04:42;;;;;;;7.80;3.97;;;7.90;99.90;;;;;;4859689;29;20045;-79
2022/05/04 02:07:09;;;;;;;11.73;3.83;;;7.90;99.90;;;;;;4865585;29;20071;-79
2022/05/04 02:09:36;;;;;;;7.23;3.10;;;7.90;99.90;;;;;;4860451;29;20047;-79
2022/05/04 02:12:05;;;;;;;6.50;3.57;;;7.80;99.90;;;;;;4857553;29;20041;-79
2022/05/04 02:14:32;;;;;;;17.73;4.03;;;7.80;99.90;;;;;;4876098;29;20045;-79
2022/05/04 02:16:59;;;;;;;8.03;3.10;;;7.80;99.90;;;;;;4881210;29;20046;-79
2022/05/04 02:19:25;;;;;;;11.20;3.90;;;7.80;99.90;;;;;;4883632;29;20055;-79
2022/05/04 02:21:51;;;;;;;8.40;3.73;;;7.80;99.90;;;;;;4861100;29;20041;-79
2022/05/04 02:24:16;;;;;;;9.93;3.93;;;7.80;99.90;;;;;;4883008;29;20124;-79
2022/05/04 02:26:42;;;;;;;10.93;4.10;;;7.80;99.90;;;;;;4859965;29;20458;-79
2022/05/04 02:29:08;;;;;;;12.87;3.70;;;7.70;99.90;;;;;;4844758;29;20093;-79
2022/05/04 02:31:34;;;;;;;9.60;3.90;;;7.80;99.90;;;;;;4890465;29;20465;-79
2022/05/04 02:33:59;;;;;;;9.37;3.43;;;7.80;99.90;;;;;;4843976;29;20036;-79
2022/05/04 02:39:09;;;;;;;11.63;3.40;;;7.80;99.90;;;;;;4892483;29;20052;-79
2022/05/04 02:41:35;;;;;;;10.63;3.30;;;7.70;99.90;;;;;;4859296;29;20045;-79
2022/05/04 02:44:03;;;;;;;13.13;3.50;;;7.70;99.90;;;;;;4844189;29;20068;-79
2022/05/04 02:46:30;;;;;;;9.43;3.40;;;7.70;99.90;;;;;;4871676;29;20041;-79
2022/05/04 02:48:56;;;;;;;8.13;3.23;;;7.70;99.90;;;;;;4844155;29;20409;-79
2022/05/04 02:51:22;;;;;;;7.17;3.50;;;7.70;99.90;;;;;;4876769;29;20048;-79
2022/05/04 02:53:48;;;;;;;7.97;3.60;;;7.70;99.90;;;;;;4848426;29;20049;-78
2022/05/04 02:56:15;;;;;;;9.93;3.73;;;7.70;99.90;;;;;;4908439;29;20168;-79
2022/05/04 02:58:42;;;;;;;8.67;3.50;;;7.70;99.90;;;;;;4847323;29;20033;-79
2022/05/04 03:02:26;;;;;;;7.93;3.67;;;7.60;99.90;;;;;;4862520;29;20048;-79
2022/05/04 03:03:55;;;;;;;8.37;3.70;;;7.60;99.90;;;;;;4877386;29;20087;-79
2022/05/04 03:06:21;;;;;;;9.97;4.00;;;7.60;99.90;;;;;;4877370;29;20452;-78
2022/05/04 03:08:47;;;;;;;9.53;3.60;;;7.60;99.90;;;;;;4878024;29;20128;-79
2022/05/04 03:13:56;;;;;;;12.10;4.43;;;7.60;99.90;;;;;;4886727;29;20188;-79
2022/05/04 03:16:22;;;;;;;10.50;3.90;;;7.70;99.90;;;;;;4861701;29;20132;-79
2022/05/04 03:18:48;;;;;;;13.57;4.57;;;7.60;99.90;;;;;;4892900;29;20074;-79
2022/05/04 03:21:13;;;;;;;9.63;4.23;;;7.60;99.90;;;;;;4865873;29;20040;-79
2022/05/04 03:23:39;;;;;;;9.07;4.10;;;7.50;99.90;;;;;;4892581;29;20045;-79
2022/05/04 03:26:08;;;;;;;10.73;4.07;;;7.60;99.90;;;;;;4877060;29;20053;-79
2022/05/04 03:28:34;;;;;;;7.83;3.67;;;7.60;99.90;;;;;;4876316;29;20048;-79
2022/05/04 03:30:59;;;;;;;12.30;4.40;;;7.60;99.90;;;;;;4861226;29;20073;-79
2022/05/04 03:33:25;;;;;;;10.03;4.53;;;7.60;99.90;;;;;;4864475;29;20068;-79
2022/05/04 03:35:51;;;;;;;8.93;4.13;;;7.60;99.90;;;;;;4877020;29;20037;-79
2022/05/04 03:38:17;;;;;;;14.43;4.23;;;7.60;99.90;;;;;;4878628;29;20045;-79
2022/05/04 03:40:43;;;;;;;11.23;4.30;;;7.60;99.90;;;;;;4877507;29;20408;-79
2022/05/04 03:43:09;;;;;;;8.60;4.03;;;7.60;99.90;;;;;;4833626;29;20045;-79
2022/05/04 03:45:35;;;;;;;12.13;4.33;;;7.60;99.90;;;;;;4861186;29;20129;-79
2022/05/04 03:48:00;;;;;;;8.80;4.17;;;7.60;99.90;;;;;;4852089;29;20047;-78
2022/05/04 03:50:26;;;;;;;10.53;3.97;;;7.50;99.90;;;;;;4858741;29;20067;-79
2022/05/04 03:52:52;;;;;;;7.67;3.27;;;7.60;99.90;;;;;;4866726;29;20462;-79
2022/05/04 03:55:17;;;;;;;10.97;3.97;;;7.50;99.90;;;;;;4862332;29;20044;-79
2022/05/04 03:57:43;;;;;;;10.00;3.83;;;7.50;99.90;;;;;;4845852;29;20037;-79
2022/05/04 04:00:09;;;;;;;5.97;3.63;;;7.50;99.90;;;;;;4877474;29;20060;-79
2022/05/04 04:02:36;;;;;;;11.87;4.03;;;7.50;99.90;;;;;;4892740;29;20045;-79
2022/05/04 04:05:02;;;;;;;11.40;4.40;;;7.50;99.90;;;;;;4861567;29;20096;-79
2022/05/04 04:07:27;;;;;;;9.77;3.93;;;7.50;99.90;;;;;;4859388;29;20446;-78
2022/05/04 04:09:53;;;;;;;10.70;3.87;;;7.50;99.90;;;;;;4869157;29;20104;-78
2022/05/04 04:12:19;;;;;;;12.83;4.37;;;7.50;99.90;;;;;;4848506;29;20044;-79
2022/05/04 04:14:45;;;;;;;9.93;3.67;;;7.50;99.90;;;;;;4874653;29;20049;-79
2022/05/04 04:17:10;;;;;;;10.77;3.97;;;7.60;99.90;;;;;;4869818;29;20037;-79
2022/05/04 04:19:36;;;;;;;13.27;3.97;;;7.50;99.90;;;;;;4862976;29;20041;-79
2022/05/04 04:22:02;;;;;;;11.73;4.33;;;7.50;99.90;;;;;;4846611;29;20635;-78
2022/05/04 04:24:28;;;;;;;8.40;3.73;;;7.50;99.90;;;;;;4862069;29;20044;-79
2022/05/04 04:26:54;;;;;;;13.03;4.20;;;7.50;99.90;;;;;;4865951;29;20045;-79
2022/05/04 04:29:20;;;;;;;9.27;4.67;;;7.60;99.90;;;;;;4879527;29;20531;-79
2022/05/04 04:31:46;;;;;;;13.70;4.47;;;7.60;99.90;;;;;;4863223;29;20045;-79
2022/05/04 04:34:11;;;;;;;15.00;4.43;;;7.60;99.90;;;;;;4875595;29;20073;-79
2022/05/04 04:36:37;;;;;;;12.73;3.93;;;7.50;99.90;;;;;;4876171;29;20040;-79
2022/05/04 04:39:04;;;;;;;9.57;4.30;;;7.50;99.90;;;;;;4863560;29;20045;-79
2022/05/04 04:41:30;;;;;;;13.80;4.10;;;7.50;99.90;;;;;;4861340;29;20052;-78
2022/05/04 04:43:56;;;;;;;11.60;4.50;;;7.60;99.90;;;;;;4847223;29;20118;-78
2022/05/04 04:46:21;;;;;;;8.63;3.87;;;7.60;99.90;;;;;;4876031;29;20128;-79
2022/05/04 04:48:48;;;;;;;12.10;4.10;;;7.60;99.90;;;;;;4876845;29;20140;-79
2022/05/04 04:51:13;;;;;;;14.10;4.73;;;7.60;99.90;;;;;;4859630;29;20180;-79
2022/05/04 04:53:39;;;;;;;20.00;4.73;;;7.70;99.90;;;;;;4892558;29;20120;-79
2022/05/04 04:56:06;;;;;;;8.03;3.33;;;7.70;99.90;;;;;;4872802;29;20041;-79
2022/05/04 04:58:31;;;;;;;10.27;4.37;;;7.70;99.90;;;;;;4890198;29;20048;-79
2022/05/04 05:00:57;;;;;;;12.67;4.07;;;7.80;99.90;;;;;;4879412;29;20045;-79
2022/05/04 05:03:23;;;;;;;14.33;4.30;;;7.80;99.90;;;;;;4875769;29;20049;-79
2022/05/04 05:05:49;;;;;;;10.87;4.33;;;7.80;99.90;;;;;;4870436;29;20139;-79
2022/05/04 05:08:14;;;;;;;13.03;4.53;;;7.80;99.90;;;;;;4862890;29;20450;-79
2022/05/04 05:10:40;;;;;;;12.10;3.93;;;7.80;99.90;;;;;;4875757;29;20037;-79
2022/05/04 05:13:07;;;;;;;9.10;4.13;;;7.80;99.90;;;;;;4875561;29;20513;-78
2022/05/04 05:18:24;;;;;;;8.82;4.30;;;7.80;99.90;;;;;;4881381;29;20072;-79
2022/05/04 05:20:50;;;;;;;9.03;3.87;;;7.80;99.90;;;;;;4846417;29;20084;-79
2022/05/04 05:23:16;;;;;;;11.37;4.40;;;7.80;99.90;;;;;;4875730;29;20140;-78
2022/05/04 05:25:41;;;;;;;7.67;3.83;;;7.90;99.90;;;;;;4875506;29;20064;-79
2022/05/04 05:28:07;;;;;;;15.47;3.47;;;7.90;99.90;;;;;;4871588;29;20060;-79
2022/05/04 05:30:33;;;;;;;6.93;3.50;;;8.00;99.90;;;;;;4854589;29;20059;-79
2022/05/04 05:32:59;;;;;;;9.87;3.60;;;8.10;99.90;;;;;;4907986;29;20040;-79
2022/05/04 05:35:24;;;;;;;7.57;3.47;;;8.20;99.90;;;;;;4871768;29;20037;-79
2022/05/04 05:37:50;;;;;;;10.47;3.73;;;8.10;99.90;;;;;;4860652;29;20048;-79
2022/05/04 05:40:16;;;;;;;8.70;3.53;;;8.10;99.90;;;;;;4859096;29;20048;-79
2022/05/04 05:42:41;;;;;;;8.00;3.10;;;8.20;99.90;;;;;;4873931;29;20427;-79
2022/05/04 05:45:08;;;;;;;9.97;3.33;;;8.20;99.90;;;;;;4889882;29;20433;-79
2022/05/04 05:47:33;;;;;;;9.00;3.30;;;8.20;99.90;;;;;;4862162;29;20064;-79
2022/05/04 05:49:59;;;;;;;9.90;3.83;;;8.20;99.90;;;;;;4859795;29;20045;-79
2022/05/04 05:52:26;;;;;;;6.23;3.20;;;8.30;99.90;;;;;;4876304;29;20052;-79
2022/05/04 05:54:52;;;;;;;7.37;2.93;;;8.30;99.90;;;;;;4862956;29;20507;-79
2022/05/04 05:57:17;;;;;;;7.20;3.37;;;8.30;99.90;;;;;;4890151;29;20069;-79
2022/05/04 05:59:43;;;;;;;9.40;3.40;;;8.30;99.90;;;;;;4856924;29;20045;-79
2022/05/04 06:02:08;;;;;;;10.00;3.57;;;8.40;99.90;;;;;;4900222;29;20508;-79
2022/05/04 06:04:34;;;;;;;7.13;3.10;;;8.40;99.90;;;;;;4878498;29;20039;-79
2022/05/04 06:07:00;;;;;;;10.67;4.50;;;8.50;99.90;;;;;;4859312;29;20052;-78
2022/05/04 06:09:26;;;;;;;7.20;3.40;;;8.50;99.90;;;;;;4861307;29;20147;-78
2022/05/04 06:11:52;;;;;;;9.33;2.93;;;8.50;99.90;;;;;;4874430;29;20044;-79
2022/05/04 06:14:18;;;;;;;7.90;3.60;;;8.60;99.90;;;;;;4874243;29;20088;-79
2022/05/04 06:16:44;;;;;;;9.73;3.17;;;8.70;99.90;;;;;;4859020;29;20125;-79
2022/05/04 06:19:11;;;;;;;6.87;3.07;;;8.70;99.90;;;;;;4874599;29;20558;-79
2022/05/04 06:21:36;;;;;;;12.37;3.10;;;8.80;99.90;;;;;;4874077;29;20045;-79
2022/05/04 06:24:02;;;;;;;8.37;3.10;;;8.80;99.90;;;;;;4865574;29;20044;-79
2022/05/04 06:26:28;;;;;;;7.30;3.17;;;8.80;99.90;;;;;;4878054;29;20531;-79
2022/05/04 06:28:54;;;;;;;9.70;3.33;;;8.90;99.90;;;;;;4880133;29;20084;-79
2022/05/04 06:34:06;;;;;;;7.30;3.00;;;9.00;99.90;;;;;;4877312;29;20132;-78
2022/05/04 06:36:33;;;;;;;9.67;2.90;;;9.00;99.90;;;;;;4877386;29;20041;-78
2022/05/04 06:38:59;;;;;;;6.60;3.33;;;9.00;99.90;;;;;;4878807;29;20041;-79
2022/05/04 06:41:24;;;;;;;8.63;3.13;;;9.00;99.90;;;;;;4848130;29;20048;-78
2022/05/04 06:43:50;;;;;;;6.37;3.17;;;9.00;99.90;;;;;;4880731;29;20048;-78
2022/05/04 06:46:16;;;;;;;6.10;2.97;;;9.10;99.90;;;;;;4879745;29;20074;-77
2022/05/04 06:48:42;;;;;;;8.37;3.10;;;9.10;99.90;;;;;;4866151;29;20204;-76
2022/05/04 06:51:08;;;;;;;5.57;2.30;;;9.10;99.90;;;;;;4909579;29;20509;-78
2022/05/04 06:53:33;;;;;;;8.40;3.07;;;9.20;99.90;;;;;;4832270;29;20107;-79
2022/05/04 06:56:00;;;;;;;9.10;3.07;;;9.20;99.90;;;;;;4872785;29;20045;-78
2022/05/04 06:58:26;;;;;;;9.13;3.07;;;9.20;99.90;;;;;;4877727;29;20041;-79
2022/05/04 07:00:51;;;;;;;6.20;2.83;;;9.20;99.90;;;;;;4878872;29;20041;-78
2022/05/04 07:03:17;;;;;;;8.70;3.07;;;9.20;99.90;;;;;;4867232;29;20044;-79
2022/05/04 07:05:44;;;;;;;8.33;3.13;;;9.20;99.90;;;;;;4862728;29;20045;-78
2022/05/04 07:08:09;;;;;;;5.20;2.67;;;9.20;99.90;;;;;;4846810;29;20052;-78
2022/05/04 07:10:35;;;;;;;6.63;3.30;;;9.20;99.90;;;;;;4861615;29;20117;-77
2022/05/04 07:13:01;;;;;;;9.17;3.10;;;9.20;99.90;;;;;;4847035;29;20045;-78
2022/05/04 07:15:26;;;;;;;10.67;3.27;;;9.20;99.90;;;;;;4874293;29;20454;-78
2022/05/04 07:17:52;;;;;;;6.70;2.77;;;9.20;99.90;;;;;;4905589;29;20400;-77
2022/05/04 07:20:18;;;;;;;6.97;2.90;;;9.30;99.90;;;;;;4876826;29;20484;-78
2022/05/04 07:22:44;;;;;;;7.80;3.10;;;9.40;99.90;;;;;;4874921;29;20080;-78
2022/05/04 07:25:10;;;;;;;5.83;3.00;;;9.40;99.90;;;;;;4869163;29;20083;-78
2022/05/04 07:27:36;;;;;;;8.07;3.00;;;9.50;99.90;;;;;;4862194;29;20136;-78
2022/05/04 07:30:02;;;;;;;6.80;2.93;;;9.70;99.90;;;;;;4877552;29;20124;-78
2022/05/04 07:32:28;;;;;;;6.93;3.00;;;9.80;99.90;;;;;;4866705;29;20059;-78
2022/05/04 07:34:54;;;;;;;7.03;3.00;;;9.70;99.90;;;;;;4870728;29;20049;-78
2022/05/04 07:37:19;;;;;;;6.23;3.03;;;9.70;99.90;;;;;;4878480;29;20044;-78
2022/05/04 07:42:29;;;;;;;6.83;2.83;;;10.00;99.90;;;;;;4864644;29;20093;-78
2022/05/04 07:45:07;;;;;;;8.53;3.60;;;10.10;99.90;;;;;;4831373;29;20513;-78
2022/05/04 07:47:35;;;;;;;5.53;2.90;;;10.30;99.90;;;;;;4849111;29;20443;-78
2022/05/04 07:50:03;;;;;;;10.17;3.23;;;10.50;99.90;;;;;;4877431;29;20037;-78
2022/05/04 07:52:29;;;;;;;8.37;3.50;;;10.90;99.90;;;;;;4877828;29;20133;-79
2022/05/04 07:54:55;;;;;;;8.80;3.20;;;11.10;99.90;;;;;;4892461;29;20481;-79
2022/05/04 07:57:21;;;;;;;5.33;2.93;;;11.30;99.90;;;;;;4844956;29;20545;-80
2022/05/04 08:04:16;;;;;;;11.93;3.03;;;11.50;99.90;;;;;;4870148;29;20390;-79
2022/05/04 08:05:21;;;;;;;7.23;3.00;;;11.90;99.90;;;;;;4902601;29;20140;-79
2022/05/04 08:07:47;;;;;;;5.07;3.23;;;12.10;99.90;;;;;;4876309;29;20685;-79
2022/05/04 08:10:13;;;;;;;8.63;3.23;;;12.10;99.90;;;;;;4861218;29;20130;-78
2022/05/04 08:12:39;;;;;;;7.50;3.20;;;12.20;99.90;;;;;;4877028;29;20045;-78
2022/05/04 08:15:06;;;;;;;7.37;2.50;;;12.30;99.90;;;;;;4860611;29;20052;-78
2022/05/04 08:17:32;;;;;;;9.83;3.30;;;12.30;99.90;;;;;;4908000;29;20067;-78
2022/05/04 08:19:58;;;;;;;6.70;2.40;;;12.40;99.90;;;;;;4883227;29;20045;-79
2022/05/04 08:22:24;;;;;;;10.67;2.97;;;12.40;99.90;;;;;;4845826;29;20045;-79
2022/05/04 08:24:51;;;;;;;8.90;3.30;;;12.30;99.90;;;;;;4876090;29;20049;-78
2022/05/04 08:27:17;;;;;;;7.97;2.70;;;12.20;99.90;;;;;;4875718;29;20084;-78
2022/05/04 08:29:44;;;;;;;7.37;2.73;;;12.10;99.90;;;;;;4868456;29;20060;-78
2022/05/04 08:32:10;;;;;;;5.93;2.93;;;11.90;99.90;;;;;;4866371;29;20649;-78
2022/05/04 08:34:36;;;;;;;7.43;2.53;;;11.70;99.90;;;;;;4868310;29;20051;-78
2022/05/04 08:37:02;;;;;;;7.57;2.87;;;11.50;99.90;;;;;;4853428;29;20045;-79
2022/05/04 08:39:28;;;;;;;6.07;2.83;;;11.20;99.90;;;;;;4862791;29;20525;-79
2022/05/04 08:41:54;;;;;;;7.63;2.83;;;10.90;99.90;;;;;;4860297;29;20072;-79
2022/05/04 08:44:20;;;;;;;10.63;3.10;;;10.80;99.90;;;;;;4870669;29;20053;-78
2022/05/04 08:46:46;;;;;;;8.00;3.30;;;10.90;99.90;;;;;;4869738;29;20101;-79
2022/05/04 08:49:12;;;;;;;9.77;2.73;;;11.20;99.90;;;;;;4860756;29;20051;-78
2022/05/04 08:51:39;;;;;;;9.47;3.03;;;11.60;99.90;;;;;;4859149;29;20537;-78
2022/05/04 08:54:06;;;;;;;9.00;3.17;;;11.80;99.90;;;;;;4873828;29;20055;-78
2022/05/04 08:56:33;;;;;;;7.60;2.90;;;12.00;99.90;;;;;;4875385;29;20124;-78
2022/05/04 08:59:02;;;;;;;6.27;2.80;;;12.40;99.90;;;;;;4855137;29;20049;-78
2022/05/04 09:01:28;;;;;;;11.43;3.40;;;12.80;95.90;;;;;;4890813;29;20135;-78
2022/05/04 09:03:54;;;;;;;8.43;3.30;;;12.80;97.10;;;;;;4866802;29;20045;-79
2022/05/04 09:06:27;;;;;;;6.57;3.27;;;12.70;96.50;;;;;;4844611;29;20041;-79
2022/05/04 09:09:04;;;;;;;7.93;2.60;;;12.50;94.80;;;;;;4874381;29;20504;-78
2022/05/04 09:11:32;;;;;;;10.73;3.20;;;12.50;95.80;;;;;;4875472;29;20041;-79
2022/05/04 09:13:58;;;;;;;8.73;3.07;;;12.40;98.20;;;;;;4873942;29;20047;-78
2022/05/04 09:16:32;;;;;;;7.87;3.23;;;12.20;99.00;;;;;;4890522;29;20041;-78
2022/05/04 09:19:20;;;;;;;7.27;2.97;;;12.10;98.60;;;;;;4875038;29;20549;-79
2022/05/04 09:21:47;;;;;;;6.33;2.80;;;12.00;97.90;;;;;;4906429;29;20049;-79
2022/05/04 09:24:25;;;;;;;12.40;3.17;;;12.00;99.70;;;;;;4860820;29;20053;-79
2022/05/04 09:26:54;;;;;;;7.80;3.30;;;12.10;91.20;;;;;;4862177;29;20044;-78
2022/05/04 09:29:20;;;;;;;9.47;3.17;;;12.30;98.10;;;;;;4877111;29;20056;-77
2022/05/04 09:31:47;;;;;;;8.97;3.10;;;12.30;97.60;;;;;;4875714;29;20064;-78
2022/05/04 09:34:14;;;;;;;6.07;3.17;;;12.50;98.70;;;;;;4893284;29;20081;-79
2022/05/04 09:45:11;;;;;;;6.47;2.93;;;13.30;91.20;;;;;;4875900;29;20049;-79
2022/05/04 09:47:41;;;;;;;6.20;2.83;;;13.40;86.90;;;;;;4859298;29;20527;-78
2022/05/04 09:50:09;;;;;;;8.83;3.27;;;13.20;91.00;;;;;;4907078;29;20059;-78
2022/05/04 09:52:49;;;;;;;8.40;3.17;;;13.00;90.00;;;;;;4856921;29;20048;-79
2022/05/04 09:55:24;;;;;;;8.90;3.00;;;13.00;91.60;;;;;;4860590;29;20128;-78
2022/05/04 09:57:51;;;;;;;8.43;3.10;;;13.00;90.10;;;;;;4873095;29;20045;-79
2022/05/04 10:00:19;;;;;;;9.33;3.40;;;12.80;92.70;;;;;;4844131;29;20076;-79
2022/05/04 10:02:46;;;;;;;7.30;3.10;;;12.60;92.80;;;;;;4868358;29;20408;-78
2022/05/04 10:05:13;;;;;;;6.40;2.73;;;12.30;95.30;;;;;;4865851;29;20052;-79
2022/05/04 10:07:40;;;;;;;10.70;2.97;;;12.20;93.10;;;;;;4860789;29;20045;-78
2022/05/04 10:10:07;;;;;;;5.90;3.00;;;12.20;95.20;;;;;;4863774;29;20496;-80
2022/05/04 10:12:39;;;;;;;9.97;3.77;;;12.10;91.60;;;;;;4832476;29;20049;-79
2022/05/04 10:15:17;;;;;;;7.45;2.92;;;12.10;93.10;;;;;;4878012;29;20076;-78
2022/05/04 10:17:53;;;;;;;7.23;3.07;;;12.40;94.40;;;;;;4877822;29;20053;-78
2022/05/04 10:20:21;;;;;;;7.70;3.20;;;12.80;86.60;;;;;;4864716;29;20111;-78
2022/05/04 10:22:57;;;;;;;6.37;3.30;;;13.20;90.80;;;;;;4847090;29;20040;-78
2022/05/04 10:25:24;;;;;;;8.37;3.00;;;13.50;81.30;;;;;;4878514;29;20441;-79
2022/05/04 10:27:52;;;;;;;7.47;3.50;;;13.70;82.40;;;;;;4847369;29;20049;-78
2022/05/04 10:30:34;;;;;;;7.80;3.20;;;13.90;87.00;;;;;;4884462;29;20053;-78
2022/05/04 10:33:09;;;;;;;5.97;3.10;;;14.10;82.80;;;;;;4877432;29;20041;-79
2022/05/04 10:35:38;;;;;;;8.07;2.93;;;14.20;74.40;;;;;;4872693;29;20040;-78
2022/05/04 10:38:18;;;;;;;6.47;3.00;;;13.80;71.90;;;;;;4878972;29;20127;-80
2022/05/04 10:41:10;;;;;;;8.10;3.03;;;13.90;84.10;;;;;;4862238;29;20049;-79
2022/05/04 10:43:45;;;;;;;8.40;3.50;;;13.80;89.70;;;;;;4878355;29;20071;-78
2022/05/04 10:46:18;;;;;;;10.67;3.40;;;14.00;76.10;;;;;;4865891;29;20047;-78
2022/05/04 10:48:50;;;;;;;7.33;3.23;;;14.10;78.60;;;;;;4876340;29;20044;-79
2022/05/04 10:51:21;;;;;;;7.95;3.25;;;14.30;79.60;;;;;;4881381;29;20056;-78
2022/05/04 10:54:00;;;;;;;7.13;3.17;;;14.70;80.10;;;;;;4862536;29;20044;-79
2022/05/04 10:56:28;;;;;;;13.40;3.43;;;14.70;70.50;;;;;;4871035;29;20048;-80
2022/05/04 10:59:01;;;;;;;8.77;3.20;;;14.60;75.80;;;;;;4878429;29;20425;-79
2022/05/04 11:01:30;;;;;;;11.10;3.70;;;14.60;75.60;;;;;;4862477;29;20075;-78
2022/05/04 11:03:58;;;;;;;9.80;3.37;;;14.50;75.80;;;;;;4862878;29;20049;-78
2022/05/04 11:06:31;;;;;;;9.90;3.30;;;14.40;76.00;;;;;;4883189;29;20226;-79
2022/05/04 11:09:02;;;;;;;9.30;3.80;;;14.30;73.00;;;;;;4867120;29;20099;-79
2022/05/04 11:11:28;;;;;;;7.28;3.47;;;14.20;74.50;;;;;;4862358;29;20073;-79
2022/05/04 11:13:54;;;;;;;7.00;3.20;;;14.20;75.50;;;;;;4862885;29;20084;-78
2022/05/04 11:16:22;;;;;;;9.03;3.30;;;14.20;74.10;;;;;;4861971;29;20073;-79
2022/05/04 11:18:47;;;;;;;8.63;3.23;;;14.20;72.00;;;;;;4846894;29;20374;-79
2022/05/04 11:21:15;;;;;;;9.83;3.30;;;14.20;71.70;;;;;;4871313;29;20119;-79
2022/05/04 11:23:46;;;;;;;9.67;3.50;;;14.40;73.80;;;;;;4866687;29;20497;-78
2022/05/04 11:26:21;;;;;;;5.95;3.42;;;14.70;70.70;;;;;;4876760;29;20044;-79
2022/05/04 11:28:47;;;;;;;8.60;3.90;;;14.90;66.80;;;;;;4877207;29;20049;-78
2022/05/04 11:31:13;;;;;;;5.63;3.15;;;15.10;69.60;;;;;;4850674;29;20053;-78
2022/05/04 11:33:47;;;;;;;8.82;3.33;;;15.10;68.20;;;;;;4871290;29;20656;-78
2022/05/04 11:36:17;;;;;;;10.23;3.25;;;15.10;65.50;;;;;;4901593;29;20477;-79
2022/05/04 11:38:46;;;;;;;7.47;3.30;;;15.00;68.60;;;;;;4864827;29;20420;-78
2022/05/04 11:41:13;;;;;;;9.48;3.50;;;15.00;69.00;;;;;;4846336;29;20045;-79
2022/05/04 11:43:39;;;;;;;10.13;3.20;;;15.10;66.90;;;;;;4879499;29;20048;-79
2022/05/04 11:46:07;;;;;;;7.93;2.70;;;15.10;68.00;;;;;;4847892;29;20052;-78
2022/05/04 11:48:36;;;;;;;11.45;2.78;;;15.20;66.40;;;;;;4876506;29;20045;-78
2022/05/04 11:51:02;;;;;;;7.07;3.00;;;15.30;64.60;;;;;;4869693;29;20041;-79
2022/05/04 11:53:29;;;;;;;8.07;3.40;;;15.50;63.60;;;;;;4861548;29;20080;-79
2022/05/04 11:55:58;;;;;;;8.23;3.70;;;15.70;63.80;;;;;;4860849;29;20040;-79
2022/05/04 11:58:26;;;;;;;7.78;2.60;;;15.90;61.60;;;;;;4892591;29;20497;-80
2022/05/04 12:00:51;;;;;;;10.27;3.20;;;15.90;61.80;;;;;;4907425;29;20143;-79
2022/05/04 12:03:18;;;;;;;13.73;3.58;;;15.90;62.90;;;;;;4876320;29;20557;-79
2022/05/04 12:05:44;;;;;;;6.93;3.25;;;15.80;63.50;;;;;;4879168;29;20143;-79
2022/05/04 12:08:11;;;;;;;8.25;3.03;;;15.50;63.60;;;;;;4873364;29;20088;-79
2022/05/04 12:10:37;;;;;;;9.35;3.50;;;15.40;65.30;;;;;;4897477;29;20040;-77
2022/05/04 12:13:04;;;;;;;8.95;3.42;;;15.40;63.60;;;;;;4864975;29;20518;-76
2022/05/04 12:15:31;;;;;;;7.63;3.33;;;15.30;64.40;;;;;;4870032;29;20053;-78
2022/05/04 12:18:01;;;;;;;6.72;3.40;;;15.40;64.70;;;;;;4861755;29;20052;-78
2022/05/04 12:20:28;;;;;;;5.72;3.47;;;15.40;62.60;;;;;;4868867;29;20137;-79
2022/05/04 12:22:55;;;;;;;8.70;4.22;;;15.30;63.40;;;;;;4896179;29;20044;-78
2022/05/04 12:25:23;;;;;;;6.93;3.80;;;15.20;64.10;;;;;;4875555;29;20584;-79
2022/05/04 12:27:51;;;;;;;7.70;3.55;;;15.10;63.60;;;;;;4842432;29;20049;-79
2022/05/04 12:33:11;;;;;;;10.30;3.60;;;15.60;64.10;;;;;;4876017;29;20056;-79
2022/05/04 12:35:43;;;;;;;9.88;3.40;;;15.80;64.20;;;;;;4850177;29;20112;-79
2022/05/04 12:38:19;;;;;;;8.73;3.28;;;15.70;61.90;;;;;;4880513;29;20108;-79
2022/05/04 12:40:47;;;;;;;5.60;3.30;;;15.70;61.90;;;;;;4876511;29;20052;-79
2022/05/04 12:43:14;;;;;;;7.65;3.40;;;15.30;63.40;;;;;;4876329;29;20576;-79
2022/05/04 12:45:40;;;;;;;9.68;3.13;;;14.90;63.80;;;;;;4866036;29;20048;-79
2022/05/04 12:48:12;;;;;;;6.95;3.42;;;14.80;64.50;;;;;;5105918;27;20411;-75
2022/05/04 12:50:39;;;;;;;9.02;3.60;;;14.60;64.40;;;;;;5095648;28;20048;-75
2022/05/04 12:53:05;;;;;;;7.40;3.45;;;14.60;65.90;;;;;;5104499;28;20052;-76
2022/05/04 12:58:16;;;;;;;8.57;3.80;;;14.40;66.00;;;;;;5093827;28;20048;-76
2022/05/04 13:00:42;;;;;;;7.60;3.57;;;14.60;66.60;;;;;;5094154;28;20050;-75
2022/05/04 13:03:12;;;;;;;10.95;3.58;;;15.00;66.50;;;;;;5098083;28;20086;-75
2022/05/04 13:05:41;;;;;;;11.55;3.42;;;15.10;65.40;;;;;;5096481;28;20040;-76
2022/05/04 13:08:08;;;;;;;8.77;3.70;;;15.30;63.80;;;;;;5094370;28;20056;-75
2022/05/04 13:10:36;;;;;;;7.25;3.45;;;15.40;64.60;;;;;;5092551;28;20056;-75
2022/05/04 13:13:02;;;;;;;7.20;3.72;;;15.50;63.20;;;;;;5102589;28;20050;-75
2022/05/04 13:15:28;;;;;;;9.82;4.13;;;15.40;62.00;;;;;;5111344;28;20040;-75
2022/05/04 13:17:54;;;;;;;11.10;3.80;;;15.50;63.00;;;;;;5093669;28;20139;-76
2022/05/04 13:20:20;;;;;;;10.23;4.65;;;15.70;62.00;;;;;;5094354;28;20062;-76
2022/05/04 13:22:46;;;;;;;7.28;3.60;;;15.70;62.40;;;;;;5100551;28;20072;-76
2022/05/04 13:25:11;;;;;;;8.60;4.10;;;15.60;63.10;;;;;;5093110;28;20048;-76